createdAt,value
2019-05-13T00:00:23.818Z,2.80
2019-05-13T00:02:51.021Z,2.80
2019-05-13T00:05:18.170Z,3.20
2019-05-13T00:07:45.279Z,3.00
2019-05-13T00:10:14.607Z,2.95
2019-05-13T00:12:44.630Z,2.77
2019-05-13T00:15:13.938Z,3.37
2019-05-13T00:17:44.324Z,3.20
2019-05-13T00:20:10.593Z,2.80
2019-05-13T00:22:37.708Z,2.10
2019-05-13T00:25:05.119Z,2.30
2019-05-13T00:27:33.823Z,2.60
2019-05-13T00:30:01.136Z,2.50
2019-05-13T00:32:28.374Z,2.27
2019-05-13T00:34:55.948Z,3.00
2019-05-13T00:37:24.587Z,2.12
2019-05-13T00:39:51.821Z,2.00
2019-05-13T00:42:21.297Z,2.33
2019-05-13T00:44:48.575Z,2.08
2019-05-13T00:47:15.968Z,2.60
2019-05-13T00:49:43.704Z,2.42
2019-05-13T00:52:11.215Z,2.30
2019-05-13T00:54:38.332Z,2.47
2019-05-13T00:57:05.995Z,2.10
2019-05-13T00:59:34.082Z,2.35
2019-05-13T01:02:03.587Z,2.00
2019-05-13T01:04:30.655Z,2.22
2019-05-13T01:06:57.796Z,2.40
2019-05-13T01:09:25.173Z,2.05
2019-05-13T01:11:53.683Z,2.37
2019-05-13T01:14:23.529Z,2.20
2019-05-13T01:16:50.750Z,1.70
2019-05-13T01:19:18.071Z,1.80
2019-05-13T01:21:45.315Z,2.12
2019-05-13T01:24:14.431Z,2.12
2019-05-13T01:26:43.661Z,1.98
2019-05-13T01:29:13.309Z,2.12
2019-05-13T01:31:40.196Z,2.25
2019-05-13T01:34:07.602Z,2.30
2019-05-13T01:36:34.461Z,1.92
2019-05-13T01:39:04.142Z,1.72
2019-05-13T01:41:33.358Z,2.45
2019-05-13T01:44:00.517Z,2.20
2019-05-13T01:46:27.880Z,1.57
2019-05-13T01:48:55.188Z,1.82
2019-05-13T01:51:24.007Z,2.35
2019-05-13T01:53:53.278Z,1.60
2019-05-13T01:56:20.072Z,1.75
2019-05-13T01:58:48.535Z,1.55
2019-05-13T02:01:15.928Z,1.70
2019-05-13T02:03:44.219Z,1.85
2019-05-13T02:06:11.376Z,1.70
2019-05-13T02:08:38.618Z,1.40
2019-05-13T02:11:06.050Z,2.10
2019-05-13T02:13:34.467Z,1.90
2019-05-13T02:16:03.930Z,1.80
2019-05-13T02:18:31.003Z,1.50
2019-05-13T02:20:58.276Z,1.72
2019-05-13T02:23:25.561Z,1.40
2019-05-13T02:25:54.170Z,2.08
2019-05-13T02:28:24.338Z,1.50
2019-05-13T02:30:55.280Z,1.50
2019-05-13T02:33:23.125Z,2.05
2019-05-13T02:35:53.096Z,1.87
2019-05-13T02:38:26.385Z,1.67
2019-05-13T02:40:52.398Z,2.08
2019-05-13T02:43:18.107Z,1.60
2019-05-13T02:45:45.979Z,1.30
2019-05-13T02:48:13.146Z,2.00
2019-05-13T02:50:43.900Z,1.80
2019-05-13T02:53:13.366Z,1.70
2019-05-13T02:55:38.737Z,2.08
2019-05-13T02:58:06.250Z,1.50
2019-05-13T03:00:33.718Z,1.80
2019-05-13T03:03:03.196Z,1.70
2019-05-13T03:05:32.091Z,1.22
2019-05-13T03:07:59.467Z,1.52
2019-05-13T03:10:26.685Z,1.70
2019-05-13T03:12:53.669Z,1.20
2019-05-13T03:15:23.108Z,1.60
2019-05-13T03:18:07.675Z,1.77
2019-05-13T03:20:35.310Z,1.87
2019-05-13T03:23:03.291Z,1.65
2019-05-13T03:25:33.079Z,2.42
2019-05-13T03:28:03.320Z,1.50
2019-05-13T03:30:34.538Z,1.45
2019-05-13T03:33:03.989Z,1.60
2019-05-13T03:35:28.643Z,1.47
2019-05-13T03:37:56.240Z,1.62
2019-05-13T03:40:24.221Z,1.70
2019-05-13T03:42:53.345Z,2.08
2019-05-13T03:45:23.267Z,1.70
2019-05-13T03:47:53.349Z,2.20
2019-05-13T03:50:22.725Z,1.42
2019-05-13T03:52:52.261Z,1.70
2019-05-13T03:55:22.611Z,1.30
2019-05-13T03:57:48.833Z,1.90
2019-05-13T04:00:16.097Z,1.40
2019-05-13T04:02:43.382Z,1.70
2019-05-13T04:05:13.308Z,1.85
2019-05-13T04:07:43.121Z,1.85
2019-05-13T04:10:13.133Z,1.82
2019-05-13T04:12:42.535Z,1.52
2019-05-13T04:15:12.558Z,1.75
2019-05-13T04:17:42.552Z,1.30
2019-05-13T04:20:12.332Z,1.67
2019-05-13T04:22:38.630Z,2.77
2019-05-13T04:25:06.703Z,1.75
2019-05-13T04:27:34.409Z,1.55
2019-05-13T04:30:03.488Z,2.08
2019-05-13T04:32:33.503Z,1.98
2019-05-13T04:35:03.449Z,1.82
2019-05-13T04:37:32.630Z,2.15
2019-05-13T04:39:58.646Z,2.37
2019-05-13T04:42:25.954Z,1.65
2019-05-13T04:44:53.539Z,2.00
2019-05-13T04:47:22.911Z,2.60
2019-05-13T04:49:53.367Z,1.90
2019-05-13T04:52:22.250Z,1.60
2019-05-13T04:54:52.492Z,2.00
2019-05-13T04:57:17.848Z,1.80
2019-05-13T04:59:44.930Z,2.10
2019-05-13T05:02:36.834Z,1.60
2019-05-13T05:05:04.888Z,1.20
2019-05-13T05:08:17.273Z,1.83
2019-05-13T05:11:15.587Z,1.63
2019-05-13T05:14:23.210Z,1.40
2019-05-13T05:17:17.809Z,1.90
2019-05-13T05:20:05.928Z,1.47
2019-05-13T05:23:13.569Z,1.63
2019-05-13T05:26:01.904Z,2.10
2019-05-13T05:28:55.663Z,1.60
2019-05-13T05:31:43.205Z,1.63
2019-05-13T05:34:32.177Z,1.23
2019-05-13T05:37:25.387Z,1.50
2019-05-13T05:39:54.190Z,1.63
2019-05-13T05:42:23.344Z,1.73
2019-05-13T05:44:51.938Z,1.40
2019-05-13T05:47:21.346Z,2.47
2019-05-13T05:49:52.187Z,1.47
2019-05-13T05:52:21.264Z,1.80
2019-05-13T05:54:51.714Z,1.73
2019-05-13T05:57:19.348Z,1.67
2019-05-13T05:59:47.243Z,1.50
2019-05-13T06:02:17.589Z,1.70
2019-05-13T06:04:45.848Z,1.60
2019-05-13T06:07:14.825Z,1.80
2019-05-13T06:09:42.466Z,1.50
2019-05-13T06:12:12.091Z,1.30
2019-05-13T06:14:42.282Z,1.53
2019-05-13T06:17:11.541Z,1.50
2019-05-13T06:19:39.075Z,1.30
2019-05-13T06:22:05.994Z,1.10
2019-05-13T06:24:33.275Z,1.63
2019-05-13T06:27:01.574Z,1.20
2019-05-13T06:29:31.401Z,1.40
2019-05-13T06:32:14.016Z,1.90
2019-05-13T06:34:27.232Z,1.13
2019-05-13T06:36:54.286Z,1.80
2019-05-13T06:39:22.226Z,1.27
2019-05-13T06:41:51.663Z,1.20
2019-05-13T06:44:21.247Z,1.20
2019-05-13T06:46:51.498Z,1.53
2019-05-13T06:49:18.148Z,1.30
2019-05-13T06:51:45.440Z,1.80
2019-05-13T06:54:12.604Z,1.37
2019-05-13T06:56:39.666Z,2.30
2019-05-13T06:59:06.891Z,1.93
2019-05-13T07:01:34.227Z,1.47
2019-05-13T07:04:02.301Z,1.17
2019-05-13T07:06:32.099Z,1.57
2019-05-13T07:09:01.239Z,1.90
2019-05-13T07:11:28.398Z,1.43
2019-05-13T07:13:55.619Z,1.37
2019-05-13T07:16:22.871Z,1.73
2019-05-13T07:18:52.364Z,1.20
2019-05-13T07:21:21.751Z,1.90
2019-05-13T07:23:52.134Z,1.30
2019-05-13T07:26:17.814Z,1.10
2019-05-13T07:28:45.514Z,1.40
2019-05-13T07:31:12.500Z,1.67
2019-05-13T07:33:42.452Z,1.40
2019-05-13T07:36:08.659Z,1.27
2019-05-13T07:38:35.536Z,1.40
2019-05-13T07:41:04.224Z,1.80
2019-05-13T07:43:32.170Z,1.93
2019-05-13T07:46:02.030Z,1.43
2019-05-13T07:48:31.641Z,1.57
2019-05-13T07:51:00.419Z,1.47
2019-05-13T07:53:28.160Z,1.20
2019-05-13T07:55:55.091Z,1.40
2019-05-13T07:58:23.045Z,1.70
2019-05-13T08:00:51.952Z,1.10
2019-05-13T08:03:21.438Z,1.10
2019-05-13T08:05:51.192Z,1.60
2019-05-13T08:08:17.778Z,1.30
2019-05-13T08:10:44.998Z,1.43
2019-05-13T08:13:12.633Z,1.63
2019-05-13T08:15:42.087Z,1.17
2019-05-13T08:18:08.661Z,1.37
2019-05-13T08:20:36.178Z,1.20
2019-05-13T08:23:03.578Z,1.50
2019-05-13T08:25:37.264Z,1.40
2019-05-13T08:28:04.595Z,1.60
2019-05-13T08:30:31.946Z,1.00
2019-05-13T08:33:01.567Z,1.50
2019-05-13T08:35:28.328Z,1.53
2019-05-13T08:37:55.835Z,1.80
2019-05-13T08:40:23.507Z,1.33
2019-05-13T08:42:52.043Z,1.37
2019-05-13T08:45:19.268Z,1.83
2019-05-13T08:47:46.358Z,1.30
2019-05-13T08:50:14.183Z,1.30
2019-05-13T08:52:42.207Z,1.83
2019-05-13T08:55:13.533Z,1.50
2019-05-13T08:57:38.340Z,1.60
2019-05-13T09:00:06.019Z,1.20
2019-05-13T09:02:33.511Z,1.40
2019-05-13T09:05:02.303Z,1.50
2019-05-13T09:07:31.877Z,1.20
2019-05-13T09:10:01.627Z,1.30
2019-05-13T09:12:35.179Z,1.90
2019-05-13T09:14:57.836Z,1.30
2019-05-13T09:17:26.305Z,1.47
2019-05-13T09:19:53.828Z,1.60
2019-05-13T09:22:21.474Z,1.13
2019-05-13T09:24:49.079Z,1.10
2019-05-13T09:27:16.014Z,1.50
2019-05-13T09:29:43.410Z,1.57
2019-05-13T09:32:12.120Z,1.40
2019-05-13T09:34:42.166Z,1.70
2019-05-13T09:37:08.654Z,1.40
2019-05-13T09:39:35.813Z,0.97
2019-05-13T09:42:03.506Z,1.60
2019-05-13T09:44:32.701Z,1.20
2019-05-13T09:47:02.506Z,1.50
2019-05-13T09:49:32.475Z,1.03
2019-05-13T09:51:58.717Z,1.50
2019-05-13T09:54:26.085Z,1.30
2019-05-13T09:56:53.282Z,1.00
2019-05-13T09:59:22.140Z,1.00
2019-05-13T10:01:51.937Z,1.10
2019-05-13T10:04:18.768Z,1.47
2019-05-13T10:06:45.923Z,1.53
2019-05-13T10:09:13.139Z,1.17
2019-05-13T10:11:40.469Z,1.20
2019-05-13T10:14:07.566Z,1.10
2019-05-13T10:16:34.851Z,1.57
2019-05-13T10:19:02.865Z,1.10
2019-05-13T10:21:32.690Z,1.20
2019-05-13T10:23:59.575Z,0.93
2019-05-13T10:26:27.554Z,1.80
2019-05-13T10:28:54.984Z,1.10
2019-05-13T10:31:22.330Z,1.40
2019-05-13T10:33:51.387Z,1.30
2019-05-13T10:36:18.819Z,2.60
2019-05-13T10:38:46.103Z,1.37
2019-05-13T10:41:13.346Z,1.30
2019-05-13T10:43:44.016Z,1.20
2019-05-13T10:46:12.749Z,0.90
2019-05-13T10:48:41.242Z,0.93
2019-05-13T10:51:08.076Z,1.07
2019-05-13T10:53:35.184Z,1.27
2019-05-13T10:56:03.338Z,1.10
2019-05-13T10:58:31.001Z,0.97
2019-05-13T11:00:58.477Z,1.23
2019-05-13T11:03:25.709Z,1.03
2019-05-13T11:05:53.259Z,1.23
2019-05-13T11:08:22.335Z,1.40
2019-05-13T11:10:52.793Z,0.90
2019-05-13T11:13:19.025Z,1.17
2019-05-13T11:15:46.505Z,1.03
2019-05-13T11:18:19.274Z,1.23
2019-05-13T11:20:43.865Z,1.10
2019-05-13T11:23:12.484Z,1.20
2019-05-13T11:25:43.247Z,1.40
2019-05-13T11:28:12.308Z,1.00
2019-05-13T11:30:39.462Z,1.03
2019-05-13T11:33:10.103Z,1.33
2019-05-13T11:35:35.874Z,0.97
2019-05-13T11:38:03.104Z,1.23
2019-05-13T11:40:31.820Z,0.97
2019-05-13T11:43:01.762Z,1.03
2019-05-13T11:45:28.601Z,1.50
2019-05-13T11:47:55.947Z,1.00
2019-05-13T11:50:23.392Z,1.17
2019-05-13T11:52:52.403Z,1.00
2019-05-13T11:55:23.025Z,0.90
2019-05-13T11:57:52.454Z,0.97
2019-05-13T12:00:57.412Z,1.23
2019-05-13T12:03:25.228Z,0.90
2019-05-13T12:05:53.693Z,0.90
2019-05-13T12:08:22.790Z,1.07
2019-05-13T12:10:51.846Z,1.20
2019-05-13T12:13:22.658Z,1.27
2019-05-13T12:15:49.883Z,0.83
2019-05-13T12:18:17.596Z,0.77
2019-05-13T12:20:45.321Z,0.90
2019-05-13T12:23:13.214Z,0.93
2019-05-13T12:25:43.865Z,1.27
2019-05-13T12:28:11.418Z,1.40
2019-05-13T12:30:38.662Z,1.20
2019-05-13T12:33:07.641Z,0.83
2019-05-13T12:35:34.872Z,1.33
2019-05-13T12:38:02.226Z,1.00
2019-05-13T12:40:33.756Z,1.03
2019-05-13T12:43:01.338Z,1.20
2019-05-13T12:45:28.376Z,1.13
2019-05-13T12:47:55.722Z,1.43
2019-05-13T12:50:23.896Z,1.37
2019-05-13T12:52:51.709Z,1.20
2019-05-13T12:55:18.775Z,1.40
2019-05-13T12:57:46.394Z,1.20
2019-05-13T13:00:13.738Z,1.10
2019-05-13T13:02:48.197Z,0.80
2019-05-13T13:05:19.545Z,1.10
2019-05-13T13:07:42.232Z,1.20
2019-05-13T13:10:14.197Z,1.00
2019-05-13T13:12:38.430Z,0.83
2019-05-13T13:15:32.074Z,1.13
2019-05-13T13:17:35.689Z,0.93
2019-05-13T13:20:09.114Z,1.00
2019-05-13T13:22:33.054Z,1.00
2019-05-13T13:25:04.952Z,1.00
2019-05-13T13:27:59.941Z,0.70
2019-05-13T13:30:04.464Z,1.27
2019-05-13T13:32:33.049Z,1.00
2019-05-13T13:34:59.195Z,1.13
2019-05-13T13:37:28.459Z,1.13
2019-05-13T13:39:55.826Z,1.00
2019-05-13T13:42:22.879Z,0.87
2019-05-13T13:44:53.932Z,0.87
2019-05-13T13:47:19.195Z,0.90
2019-05-13T13:49:46.390Z,1.17
2019-05-13T13:52:16.140Z,1.00
2019-05-13T13:54:44.171Z,0.97
2019-05-13T13:57:13.391Z,0.90
2019-05-13T14:00:14.230Z,1.07
2019-05-13T14:02:13.051Z,1.00
2019-05-13T14:04:38.422Z,0.90
2019-05-13T14:07:22.955Z,1.30
2019-05-13T14:09:34.728Z,0.90
2019-05-13T14:12:02.147Z,0.97
2019-05-13T14:14:31.823Z,1.17
2019-05-13T14:16:58.324Z,1.10
2019-05-13T14:19:25.925Z,0.80
2019-05-13T14:21:52.849Z,1.00
2019-05-13T14:24:21.754Z,0.83
2019-05-13T14:26:52.137Z,1.10
2019-05-13T14:29:21.318Z,1.20
2019-05-13T14:31:48.720Z,1.43
2019-05-13T14:34:16.326Z,1.07
2019-05-13T14:36:43.854Z,1.10
2019-05-13T14:39:14.042Z,1.13
2019-05-13T14:41:42.520Z,1.23
2019-05-13T14:44:12.322Z,1.30
2019-05-13T14:46:47.272Z,1.20
2019-05-13T14:49:08.237Z,1.63
2019-05-13T14:51:35.262Z,1.10
2019-05-13T14:54:02.883Z,1.30
2019-05-13T14:56:32.353Z,1.20
2019-05-13T14:58:58.992Z,1.40
2019-05-13T15:01:26.447Z,1.60
2019-05-13T15:03:53.721Z,1.10
2019-05-13T15:06:22.191Z,1.33
2019-05-13T15:08:49.353Z,1.30
2019-05-13T15:11:16.576Z,1.40
2019-05-13T15:13:43.534Z,1.27
2019-05-13T15:16:11.729Z,1.20
2019-05-13T15:18:41.402Z,1.10
2019-05-13T15:21:12.428Z,1.23
2019-05-13T15:23:41.865Z,1.20
2019-05-13T15:26:11.028Z,1.20
2019-05-13T15:28:38.347Z,1.10
2019-05-13T15:31:09.398Z,1.23
2019-05-13T15:33:37.729Z,1.67
2019-05-13T15:36:05.032Z,1.40
2019-05-13T15:38:32.396Z,1.20
2019-05-13T15:41:01.237Z,1.30
2019-05-13T15:43:28.755Z,1.00
2019-05-13T15:45:56.158Z,1.03
2019-05-13T15:48:23.263Z,1.27
2019-05-13T15:50:51.320Z,1.27
2019-05-13T15:53:18.504Z,1.00
2019-05-13T15:55:45.420Z,1.30
2019-05-13T15:58:12.423Z,1.30
2019-05-13T16:00:41.704Z,1.20
2019-05-13T16:03:08.178Z,1.57
2019-05-13T16:05:35.536Z,1.30
2019-05-13T16:08:02.370Z,0.93
2019-05-13T16:10:29.565Z,1.37
2019-05-13T16:12:56.811Z,1.27
2019-05-13T16:15:24.079Z,1.50
2019-05-13T16:17:54.454Z,0.93
2019-05-13T16:20:21.560Z,1.47
2019-05-13T16:22:48.914Z,1.50
2019-05-13T16:25:16.620Z,1.10
2019-05-13T16:27:43.917Z,1.10
2019-05-13T16:30:11.960Z,1.30
2019-05-13T16:32:39.379Z,1.23
2019-05-13T16:35:07.590Z,1.50
2019-05-13T16:37:34.903Z,1.20
2019-05-13T16:40:02.093Z,1.07
2019-05-13T16:42:31.748Z,1.10
2019-05-13T16:44:58.793Z,1.23
2019-05-13T16:47:26.239Z,1.40
2019-05-13T16:49:53.663Z,1.13
2019-05-13T16:52:22.071Z,1.57
2019-05-13T16:54:49.216Z,0.80
2019-05-13T16:57:16.430Z,1.60
2019-05-13T16:59:43.802Z,0.93
2019-05-13T17:02:12.654Z,1.30
2019-05-13T17:04:41.458Z,1.33
2019-05-13T17:07:08.739Z,1.20
2019-05-13T17:09:36.197Z,1.50
2019-05-13T17:12:03.512Z,1.33
2019-05-13T17:14:32.291Z,1.07
2019-05-13T17:17:01.213Z,1.20
2019-05-13T17:19:28.591Z,0.97
2019-05-13T17:21:55.964Z,1.10
2019-05-13T17:24:24.523Z,1.40
2019-05-13T17:26:52.340Z,0.90
2019-05-13T17:29:21.135Z,1.33
2019-05-13T17:31:48.373Z,1.27
2019-05-13T17:34:15.566Z,0.90
2019-05-13T17:36:42.794Z,1.03
2019-05-13T17:39:11.795Z,1.17
2019-05-13T17:41:38.711Z,1.37
2019-05-13T17:44:06.499Z,1.30
2019-05-13T17:46:34.781Z,1.50
2019-05-13T17:49:02.581Z,1.00
2019-05-13T17:51:29.611Z,2.00
2019-05-13T17:53:57.137Z,0.93
2019-05-13T17:56:24.544Z,1.67
2019-05-13T17:58:51.825Z,1.17
2019-05-13T18:01:21.099Z,1.30
2019-05-13T18:03:47.992Z,1.30
2019-05-13T18:06:14.820Z,1.40
2019-05-13T18:08:42.281Z,1.27
2019-05-13T18:11:11.242Z,1.20
2019-05-13T18:13:42.984Z,1.60
2019-05-13T18:16:07.654Z,1.00
2019-05-13T18:18:43.234Z,1.03
2019-05-13T18:21:04.268Z,1.60
2019-05-13T18:23:31.786Z,1.20
2019-05-13T18:26:01.741Z,1.43
2019-05-13T18:28:31.475Z,1.40
2019-05-13T18:30:57.192Z,1.03
2019-05-13T18:33:24.031Z,1.60
2019-05-13T18:35:52.559Z,1.13
2019-05-13T18:38:21.136Z,1.17
2019-05-13T18:40:49.332Z,1.50
2019-05-13T18:43:21.581Z,1.20
2019-05-13T18:45:51.909Z,1.40
2019-05-13T18:48:18.554Z,1.10
2019-05-13T18:50:45.920Z,1.40
2019-05-13T18:53:13.083Z,1.13
2019-05-13T18:55:41.614Z,1.20
2019-05-13T18:58:11.471Z,1.27
2019-05-13T19:00:38.113Z,1.10
2019-05-13T19:03:04.954Z,1.30
2019-05-13T19:05:32.084Z,1.30
2019-05-13T19:07:59.055Z,1.67
2019-05-13T19:10:31.235Z,1.70
2019-05-13T19:12:58.496Z,1.10
2019-05-13T19:15:25.673Z,1.20
2019-05-13T19:17:52.556Z,1.47
2019-05-13T19:20:21.929Z,1.50
2019-05-13T19:22:48.965Z,1.53
2019-05-13T19:25:17.571Z,1.30
2019-05-13T19:27:45.132Z,2.00
2019-05-13T19:30:12.673Z,1.80
2019-05-13T19:32:41.706Z,1.10
2019-05-13T19:35:11.436Z,1.47
2019-05-13T19:37:38.218Z,1.80
2019-05-13T19:40:05.693Z,2.17
2019-05-13T19:42:35.131Z,2.20
2019-05-13T19:45:02.614Z,1.80
2019-05-13T19:47:30.582Z,1.67
2019-05-13T19:49:57.739Z,1.37
2019-05-13T19:52:25.047Z,1.60
2019-05-13T19:54:52.051Z,1.73
2019-05-13T19:57:21.267Z,1.30
2019-05-13T19:59:48.738Z,1.20
2019-05-13T20:02:15.970Z,1.13
2019-05-13T20:04:42.927Z,1.30
2019-05-13T20:07:11.871Z,1.70
2019-05-13T20:09:39.556Z,1.70
2019-05-13T20:12:06.861Z,1.60
2019-05-13T20:14:34.195Z,1.53
2019-05-13T20:17:01.784Z,1.70
2019-05-13T20:19:46.002Z,1.43
2019-05-13T20:21:59.417Z,1.23
2019-05-13T20:24:27.031Z,1.43
2019-05-13T20:26:54.211Z,1.73
2019-05-13T20:29:21.650Z,1.50
2019-05-13T20:31:51.823Z,1.40
2019-05-13T20:34:19.178Z,2.80
2019-05-13T20:36:46.731Z,2.20
2019-05-13T20:39:14.290Z,1.67
2019-05-13T20:41:41.626Z,1.80
2019-05-13T20:44:08.960Z,1.40
2019-05-13T20:46:36.310Z,1.43
2019-05-13T20:49:03.883Z,1.90
2019-05-13T20:51:31.642Z,1.67
2019-05-13T20:53:59.058Z,1.40
2019-05-13T20:56:26.073Z,1.20
2019-05-13T20:58:53.248Z,2.00
2019-05-13T21:01:20.468Z,1.90
2019-05-13T21:03:47.685Z,1.43
2019-05-13T21:06:14.832Z,1.40
2019-05-13T21:08:42.200Z,1.27
2019-05-13T21:11:11.517Z,1.67
2019-05-13T21:13:41.095Z,1.30
2019-05-13T21:16:08.186Z,1.40
2019-05-13T21:18:35.184Z,1.50
2019-05-13T21:21:02.450Z,1.50
2019-05-13T21:23:31.253Z,1.43
2019-05-13T21:26:01.409Z,1.60
2019-05-13T21:28:31.736Z,1.60
2019-05-13T21:30:58.920Z,1.73
2019-05-13T21:33:26.486Z,1.37
2019-05-13T21:35:53.927Z,1.60
2019-05-13T21:38:22.211Z,1.23
2019-05-13T21:40:52.240Z,1.40
2019-05-13T21:43:21.405Z,1.67
2019-05-13T21:45:48.579Z,1.77
2019-05-13T21:48:21.519Z,1.60
2019-05-13T21:50:48.333Z,1.73
2019-05-13T21:53:18.915Z,1.97
2019-05-13T21:55:46.812Z,1.83
2019-05-13T21:58:14.303Z,1.70
2019-05-13T22:00:43.489Z,1.77
2019-05-13T22:03:11.581Z,1.50
2019-05-13T22:05:39.058Z,2.03
2019-05-13T22:08:06.425Z,1.40
2019-05-13T22:10:33.629Z,1.83
2019-05-13T22:13:02.381Z,1.77
2019-05-13T22:15:32.153Z,1.70
2019-05-13T22:18:04.973Z,1.60
2019-05-13T22:20:46.609Z,1.87
2019-05-13T22:23:01.516Z,1.97
2019-05-13T22:25:29.341Z,1.70
2019-05-13T22:27:57.605Z,1.80
2019-05-13T22:30:24.982Z,1.60
2019-05-13T22:32:52.361Z,1.53
2019-05-13T22:35:21.629Z,1.50
2019-05-13T22:37:51.079Z,1.50
2019-05-13T22:40:18.303Z,1.37
2019-05-13T22:42:45.289Z,2.00
2019-05-13T22:45:12.926Z,1.60
2019-05-13T22:47:41.713Z,1.80
2019-05-13T22:50:11.391Z,1.60
2019-05-13T22:52:38.351Z,1.60
2019-05-13T22:55:05.651Z,1.90
2019-05-13T22:57:32.500Z,1.80
2019-05-13T22:59:59.708Z,2.17
2019-05-13T23:02:27.061Z,1.80
2019-05-13T23:04:53.920Z,2.00
2019-05-13T23:07:22.340Z,1.60
2019-05-13T23:09:51.800Z,1.57
2019-05-13T23:12:21.810Z,1.57
2019-05-13T23:14:49.185Z,1.80
2019-05-13T23:17:16.229Z,2.07
2019-05-13T23:19:43.814Z,2.30
2019-05-13T23:22:12.108Z,1.60
2019-05-13T23:24:41.629Z,1.30
2019-05-13T23:27:11.013Z,2.00
2019-05-13T23:29:37.991Z,1.63
2019-05-13T23:32:04.867Z,1.77
2019-05-13T23:34:32.253Z,2.20
2019-05-13T23:36:59.464Z,1.70
2019-05-13T23:39:26.691Z,1.97
2019-05-13T23:41:54.136Z,1.70
2019-05-13T23:44:27.834Z,2.27
2019-05-13T23:46:51.486Z,1.70
2019-05-13T23:49:20.922Z,1.97
2019-05-13T23:51:48.167Z,2.07
2019-05-13T23:54:15.628Z,1.53
2019-05-13T23:56:42.865Z,2.03
2019-05-13T23:59:11.348Z,1.67
